Saint Charles, Michigan
Current Conditions -  °F | °C
As of 11:53 PM on Saturday 22 Nov 2014 (Local Time) from KMBS Reporting Station
Haze Haze  
Wind Chill: 41°   Ceiling: 1500
Heat Index: 46°   Visibility: 6mi
Dew Point: 43°   Wind: 10mph
Humidity: 89%   Direction: 230°SW
Pressure: 29.89"   Gusts: NA
Location:  43.3°N, 84.14°W
Report Text: KMBS 230453Z 23009KT 6SM BR OVC015 08/06 A2989 RMK AO2 SLP126 T00780061 400831050
Loading
Personal Weather Stations






























Interactive Weather Map New forecast layout! Learn more

10-Day Weather Forecast

Advertisements
Track Severe Weather on mobile